Terry, West Virginia
Current Conditions -  °F | °C
As of 9:46 PM on Wednesday 26 Nov 2014 (Local Time) from KBKW Reporting Station
Broken Clouds Broken Clouds  
Wind Chill: 29°   Ceiling: 500
Heat Index: 34°   Visibility: 10mi
Dew Point: 30°   Wind: 6mph
Humidity: 87%   Direction: 190°S
Pressure: 29.97"   Gusts: NA
Location:  37.86°N, 81.1°W
Report Text: KBKW 270246Z AUTO 19005KT 10SM BKN005 01/M01 A2997 RMK AO2
Loading
Personal Weather Stations






























Interactive Weather Map New forecast layout! Learn more

10-Day Weather Forecast

Advertisements
Track Severe Weather on mobile